Time;durP1;ratioP1;P1;durP2;ratioP2;P2;SDS_P1;SDS_P2;PMS_P1;PMS_P2;Temp;Humidity;BMP_temperature;BMP_pressure;BME280_temperature;BME280_humidity;BME280_pressure;Samples;Min_cycle;Max_cycle;Signal;HPM_P1;HPM_P2
2021/05/12 00:02:06;;;;;;;6.55;4.53;;;12.30;99.90;;;;;;5032679;28;20029;-81
2021/05/12 00:04:31;;;;;;;10.32;5.38;;;12.30;99.90;;;;;;5038190;28;20064;-79
2021/05/12 00:06:57;;;;;;;9.27;5.88;;;12.30;99.90;;;;;;5050705;28;20079;-80
2021/05/12 00:09:23;;;;;;;11.07;5.47;;;;;;;;;;5052772;28;20051;-80
2021/05/12 00:11:48;;;;;;;10.18;5.78;;;12.40;99.90;;;;;;5037723;28;20640;-83
2021/05/12 00:14:15;;;;;;;7.70;5.22;;;;;;;;;;5039013;28;20064;-79
2021/05/12 00:16:41;;;;;;;7.45;5.20;;;;;;;;;;5061203;28;20214;-82
2021/05/12 00:19:07;;;;;;;14.05;7.80;;;12.30;99.90;;;;;;5044955;28;20028;-83
2021/05/12 00:21:56;;;;;;;12.15;5.93;;;14.20;99.90;;;;;;5040365;28;20032;-81
2021/05/12 00:24:21;;;;;;;10.35;5.32;;;12.40;99.90;;;;;;5052519;28;20395;-81
2021/05/12 00:26:47;;;;;;;10.18;7.18;;;;;;;;;;5033242;28;20053;-83
2021/05/12 00:29:15;;;;;;;8.07;5.68;;;12.40;99.90;;;;;;5041081;28;20029;-83
2021/05/12 00:31:42;;;;;;;11.40;7.45;;;12.30;99.90;;;;;;5046216;28;20036;-81
2021/05/12 00:34:08;;;;;;;11.00;7.07;;;;;;;;;;5035657;28;20438;-82
2021/05/12 00:36:34;;;;;;;12.45;6.25;;;12.30;99.90;;;;;;5041843;28;20064;-81
2021/05/12 00:39:02;;;;;;;9.57;6.10;;;12.40;99.90;;;;;;5042024;28;20120;-78
2021/05/12 00:41:28;;;;;;;11.55;6.60;;;12.30;99.90;;;;;;5044563;28;20021;-80
2021/05/12 00:43:56;;;;;;;9.15;6.60;;;;;;;;;;5039708;28;20029;-79
2021/05/12 00:46:22;;;;;;;11.95;7.15;;;;;;;;;;5052485;28;20408;-80
2021/05/12 00:48:48;;;;;;;12.32;7.68;;;12.20;99.90;;;;;;5043391;28;20025;-83
2021/05/12 00:51:14;;;;;;;8.32;6.93;;;12.30;99.90;;;;;;5037213;28;20063;-79
2021/05/12 00:53:39;;;;;;;10.70;7.10;;;12.10;99.90;;;;;;5056150;28;20045;-82
2021/05/12 00:56:06;;;;;;;10.63;6.85;;;;;;;;;;5055567;28;20313;-84
2021/05/12 00:58:32;;;;;;;9.43;6.65;;;;;;;;;;5038064;28;20107;-81
2021/05/12 01:00:58;;;;;;;14.65;6.60;;;12.10;99.90;;;;;;5052910;28;20068;-83
2021/05/12 01:03:24;;;;;;;11.65;5.43;;;;;;;;;;5049261;28;20186;-81
2021/05/12 01:05:50;;;;;;;7.47;5.25;;;;;;;;;;5048458;28;20037;-80
2021/05/12 01:08:17;;;;;;;7.97;5.22;;;12.20;99.90;;;;;;5055322;28;20088;-85
2021/05/12 01:10:43;;;;;;;9.73;5.07;;;;;;;;;;5055082;28;20028;-81
2021/05/12 01:13:12;;;;;;;10.80;5.38;;;12.20;99.90;;;;;;5042994;28;20032;-80
2021/05/12 01:15:39;;;;;;;6.38;4.53;;;;;;;;;;5037929;28;20044;-83
2021/05/12 01:18:31;;;;;;;8.15;4.90;;;12.20;99.90;;;;;;5056400;28;20075;-79
2021/05/12 01:20:59;;;;;;;13.13;4.88;;;12.20;99.90;;;;;;5036483;28;20045;-82
2021/05/12 01:23:28;;;;;;;10.00;4.70;;;12.20;99.90;;;;;;5035504;28;20025;-81
2021/05/12 01:25:58;;;;;;;7.47;4.85;;;12.10;99.90;;;;;;5030556;28;20021;-83
2021/05/12 01:28:26;;;;;;;6.53;4.37;;;12.10;99.90;;;;;;5054764;28;20047;-80
2021/05/12 01:31:15;;;;;;;7.47;4.38;;;12.10;99.90;;;;;;5043186;28;20733;-83
2021/05/12 01:33:42;;;;;;;8.45;4.18;;;12.10;99.90;;;;;;5043548;28;20048;-82
2021/05/12 01:36:09;;;;;;;8.55;4.88;;;14.20;99.90;;;;;;5039732;28;20028;-81
2021/05/12 01:38:36;;;;;;;8.77;3.75;;;12.10;99.90;;;;;;5038432;28;20115;-84
2021/05/12 01:41:03;;;;;;;7.97;3.67;;;12.10;99.90;;;;;;5039214;28;20124;-84
2021/05/12 01:43:31;;;;;;;8.38;4.10;;;12.10;99.90;;;;;;5054470;28;20025;-80
2021/05/12 01:45:57;;;;;;;5.80;3.63;;;;;;;;;;5052272;28;20088;-81
2021/05/12 01:48:23;;;;;;;7.45;3.70;;;;;;;;;;5050265;28;20029;-82
2021/05/12 01:50:49;;;;;;;8.57;4.00;;;12.00;99.90;;;;;;5058366;28;20028;-83
2021/05/12 01:53:15;;;;;;;6.68;3.67;;;12.10;99.90;;;;;;5045854;28;20033;-82
2021/05/12 01:55:41;;;;;;;11.18;4.70;;;;;;;;;;5052581;28;20036;-83
2021/05/12 01:58:07;;;;;;;8.70;4.00;;;;;;;;;;5037176;28;20080;-82
2021/05/12 02:00:42;;;;;;;6.75;4.25;;;12.10;99.90;;;;;;5044887;28;20033;-80
2021/05/12 02:03:08;;;;;;;7.60;4.28;;;12.00;99.90;;;;;;5052579;28;20029;-82
2021/05/12 02:05:36;;;;;;;7.82;4.18;;;12.00;99.90;;;;;;5031031;28;20032;-82
2021/05/12 02:08:04;;;;;;;8.10;4.10;;;11.90;99.90;;;;;;5053921;28;20128;-81
2021/05/12 02:10:30;;;;;;;6.63;4.20;;;;;;;;;;5025468;28;20091;-78
2021/05/12 02:12:56;;;;;;;7.88;4.18;;;;;;;;;;5028067;28;20333;-83
2021/05/12 02:15:23;;;;;;;7.05;4.25;;;11.90;99.90;;;;;;5027968;28;20430;-84
2021/05/12 02:17:49;;;;;;;6.72;4.13;;;11.90;99.90;;;;;;5037598;28;20037;-81
2021/05/12 02:20:17;;;;;;;8.73;4.25;;;11.90;99.90;;;;;;5038142;28;20079;-80
2021/05/12 02:22:43;;;;;;;9.30;4.55;;;;;;;;;;5034600;28;20028;-81
2021/05/12 02:25:10;;;;;;;9.15;4.75;;;11.90;99.90;;;;;;5034768;28;20021;-81
2021/05/12 02:27:36;;;;;;;6.97;4.28;;;;;;;;;;5036431;28;20484;-82
2021/05/12 02:30:04;;;;;;;7.38;4.10;;;12.00;99.90;;;;;;5044929;28;20680;-81
2021/05/12 02:32:30;;;;;;;9.00;4.30;;;;;;;;;;5035809;28;20032;-81
2021/05/12 02:34:56;;;;;;;15.65;5.53;;;11.80;99.90;;;;;;5043039;28;20121;-81
2021/05/12 02:37:23;;;;;;;7.85;4.97;;;;;;;;;;5032652;28;20132;-80
2021/05/12 02:39:48;;;;;;;8.80;5.10;;;11.70;99.90;;;;;;5051571;28;20040;-81
2021/05/12 02:42:14;;;;;;;9.98;5.05;;;;;;;;;;5035275;28;20111;-79
2021/05/12 02:44:40;;;;;;;9.52;4.63;;;11.70;99.90;;;;;;5054855;28;20033;-81
2021/05/12 02:47:06;;;;;;;9.43;4.88;;;;;;;;;;5051873;28;20025;-82
2021/05/12 02:49:32;;;;;;;8.80;4.82;;;;;;;;;;5038852;28;20025;-81
2021/05/12 02:51:58;;;;;;;9.65;4.70;;;11.70;99.90;;;;;;5039608;28;20039;-81
2021/05/12 02:54:23;;;;;;;9.05;4.93;;;11.70;99.90;;;;;;5054936;28;20025;-83
2021/05/12 02:56:49;;;;;;;8.25;5.15;;;11.60;99.90;;;;;;5052036;28;20403;-81
2021/05/12 02:59:15;;;;;;;7.90;4.75;;;;;;;;;;5035486;28;20040;-78
2021/05/12 03:01:41;;;;;;;10.00;4.55;;;11.60;99.90;;;;;;5034690;28;21932;-80
2021/05/12 03:04:07;;;;;;;7.15;4.95;;;11.60;99.90;;;;;;5041826;28;20029;-83
2021/05/12 03:06:32;;;;;;;8.90;4.97;;;11.60;99.90;;;;;;5039092;28;20025;-82
2021/05/12 03:08:58;;;;;;;8.98;4.97;;;11.50;99.90;;;;;;5042023;28;20033;-81
2021/05/12 03:11:24;;;;;;;10.90;5.30;;;;;;;;;;5061065;28;20033;-80
2021/05/12 03:13:50;;;;;;;10.98;5.18;;;11.50;99.90;;;;;;5059691;28;20041;-80
2021/05/12 03:16:16;;;;;;;8.55;4.47;;;11.50;99.90;;;;;;5044100;28;20029;-82
2021/05/12 03:18:42;;;;;;;7.88;4.75;;;;;;;;;;5038236;28;20059;-82
2021/05/12 03:21:08;;;;;;;7.85;4.85;;;;;;;;;;5057144;28;20802;-82
2021/05/12 03:23:33;;;;;;;8.57;5.10;;;11.40;99.90;;;;;;5062921;28;20612;-80
2021/05/12 03:26:00;;;;;;;8.27;4.50;;;;;;;;;;5055266;28;20033;-81
2021/05/12 03:28:26;;;;;;;8.43;4.55;;;11.50;99.90;;;;;;5033320;28;20041;-82
2021/05/12 03:30:52;;;;;;;8.00;4.50;;;;;;;;;;5032057;28;20484;-82
2021/05/12 03:33:17;;;;;;;6.80;4.40;;;11.40;99.90;;;;;;5034838;28;20024;-80
2021/05/12 03:35:43;;;;;;;7.47;4.40;;;;;;;;;;5046683;28;20025;-82
2021/05/12 03:38:14;;;;;;;7.85;4.00;;;11.40;99.90;;;;;;5058108;28;20579;-79
2021/05/12 03:40:41;;;;;;;6.72;4.47;;;;;;;;;;5061055;28;20033;-83
2021/05/12 03:43:07;;;;;;;9.00;4.57;;;11.40;99.90;;;;;;5042052;28;20032;-82
2021/05/12 03:45:33;;;;;;;8.98;4.68;;;11.80;99.90;;;;;;5042109;28;20038;-83
2021/05/12 03:47:59;;;;;;;10.27;3.58;;;;;;;;;;5039413;28;20021;-84
2021/05/12 03:50:28;;;;;;;7.57;4.05;;;11.40;99.90;;;;;;5041270;28;20507;-80
2021/05/12 03:52:55;;;;;;;6.88;4.05;;;11.50;99.90;;;;;;5041303;28;20033;-82
2021/05/12 03:55:22;;;;;;;11.02;4.30;;;11.40;99.90;;;;;;5042588;28;20119;-81
2021/05/12 03:57:47;;;;;;;7.68;4.43;;;11.50;99.90;;;;;;5033732;28;20035;-80
2021/05/12 04:00:14;;;;;;;8.77;4.40;;;11.40;99.90;;;;;;5048600;28;20410;-80
2021/05/12 04:02:41;;;;;;;7.85;4.75;;;11.40;99.90;;;;;;5035343;28;20025;-81
2021/05/12 04:05:07;;;;;;;6.65;3.67;;;13.90;99.90;;;;;;5044921;28;20117;-80
2021/05/12 04:07:33;;;;;;;5.90;3.90;;;11.30;99.90;;;;;;5062232;28;20028;-81
2021/05/12 04:09:59;;;;;;;6.05;4.15;;;;;;;;;;5059559;28;20025;-81
2021/05/12 04:12:25;;;;;;;7.13;3.88;;;;;;;;;;5037708;28;20059;-84
2021/05/12 04:14:51;;;;;;;7.60;3.88;;;;;;;;;;5051812;28;20052;-81
2021/05/12 04:17:17;;;;;;;8.75;3.92;;;11.40;99.90;;;;;;5038954;28;20586;-77
2021/05/12 04:19:43;;;;;;;6.55;3.80;;;11.40;99.90;;;;;;5040028;28;20029;-80
2021/05/12 04:22:08;;;;;;;6.88;3.95;;;11.30;99.90;;;;;;5036949;28;20057;-82
2021/05/12 04:24:34;;;;;;;7.38;3.78;;;11.30;99.90;;;;;;5053703;28;20025;-79
2021/05/12 04:27:00;;;;;;;10.18;4.20;;;11.30;99.90;;;;;;5033327;28;20083;-81
2021/05/12 04:29:26;;;;;;;9.32;4.22;;;11.30;99.90;;;;;;5033402;28;20029;-79
2021/05/12 04:31:51;;;;;;;8.93;4.78;;;13.60;99.90;;;;;;5034148;28;20058;-84
2021/05/12 04:34:17;;;;;;;6.57;3.80;;;13.40;99.90;;;;;;5049641;28;20148;-80
2021/05/12 04:36:43;;;;;;;9.70;4.53;;;11.40;99.90;;;;;;5058581;28;20089;-79
2021/05/12 04:39:09;;;;;;;9.88;4.00;;;11.50;99.90;;;;;;5037425;28;20092;-81
2021/05/12 04:41:35;;;;;;;8.02;4.00;;;11.30;99.90;;;;;;5039725;28;20025;-81
2021/05/12 04:44:02;;;;;;;8.07;4.22;;;11.50;99.90;;;;;;5032594;28;20021;-80
2021/05/12 04:46:27;;;;;;;6.43;4.20;;;11.40;99.90;;;;;;5028506;28;20419;-80
2021/05/12 04:48:53;;;;;;;7.32;3.72;;;11.50;99.90;;;;;;5053100;28;20029;-77
2021/05/12 04:51:21;;;;;;;7.25;3.92;;;11.50;99.90;;;;;;5051259;28;20021;-80
2021/05/12 04:53:47;;;;;;;8.50;3.83;;;11.50;99.90;;;;;;5025116;28;20032;-76
2021/05/12 04:56:13;;;;;;;9.43;3.92;;;11.40;99.90;;;;;;5034290;28;20033;-80
2021/05/12 04:58:41;;;;;;;9.98;4.22;;;11.40;99.90;;;;;;5050015;28;20029;-79
2021/05/12 05:01:07;;;;;;;6.10;3.83;;;11.40;99.90;;;;;;5047995;28;20083;-79
2021/05/12 05:03:40;;;;;;;9.18;4.07;;;11.40;99.90;;;;;;5043745;28;20028;-80
2021/05/12 05:06:05;;;;;;;5.20;3.75;;;11.50;99.90;;;;;;5045695;28;20013;-76
2021/05/12 05:08:31;;;;;;;7.30;3.80;;;11.60;99.90;;;;;;5053997;28;20502;-80
2021/05/12 05:10:57;;;;;;;6.97;3.92;;;11.50;99.90;;;;;;5035341;28;20033;-79
2021/05/12 05:13:22;;;;;;;8.40;4.30;;;11.40;99.90;;;;;;5056480;28;20025;-78
2021/05/12 05:15:48;;;;;;;9.30;4.25;;;11.30;99.90;;;;;;5052393;28;20033;-80
2021/05/12 05:18:15;;;;;;;10.05;4.03;;;;;;;;;;5033586;28;20025;-81
2021/05/12 05:20:41;;;;;;;9.02;4.05;;;11.30;99.90;;;;;;5018030;28;20082;-81
2021/05/12 05:23:06;;;;;;;7.55;4.35;;;11.40;99.90;;;;;;5032530;28;20539;-80
2021/05/12 05:25:32;;;;;;;10.93;4.15;;;11.40;99.90;;;;;;5029343;28;20028;-80
2021/05/12 05:27:58;;;;;;;8.95;4.07;;;11.20;99.90;;;;;;5038109;28;20117;-80
2021/05/12 05:30:24;;;;;;;10.18;4.28;;;;;;;;;;5033913;28;20067;-77
2021/05/12 05:32:50;;;;;;;10.15;4.65;;;;;;;;;;5040562;28;20029;-80
2021/05/12 05:35:16;;;;;;;6.97;3.78;;;;;;;;;;5031817;28;20033;-83
2021/05/12 05:37:41;;;;;;;11.80;3.95;;;11.50;99.90;;;;;;5038361;28;20056;-81
2021/05/12 05:40:08;;;;;;;9.57;3.95;;;11.70;99.90;;;;;;5037105;28;20329;-82
2021/05/12 05:42:33;;;;;;;9.82;3.90;;;11.70;99.90;;;;;;5039713;28;20029;-80
2021/05/12 05:44:59;;;;;;;6.68;3.72;;;;;;;;;;5055580;28;20101;-80
2021/05/12 05:47:26;;;;;;;6.32;4.10;;;11.70;99.90;;;;;;5038978;28;20032;-80
2021/05/12 05:49:52;;;;;;;9.88;4.10;;;11.50;99.90;;;;;;5044447;28;20172;-82
2021/05/12 05:52:18;;;;;;;9.05;4.25;;;11.60;99.90;;;;;;5031619;28;20060;-81
2021/05/12 05:54:44;;;;;;;7.63;4.38;;;11.60;99.90;;;;;;5045387;28;20051;-81
2021/05/12 05:57:14;;;;;;;9.30;4.63;;;11.50;99.90;;;;;;5039039;28;20026;-83
2021/05/12 05:59:40;;;;;;;5.50;3.70;;;11.40;99.90;;;;;;5037785;28;20087;-81
2021/05/12 06:02:07;;;;;;;7.78;4.05;;;11.60;99.90;;;;;;5038582;28;20024;-80
2021/05/12 06:04:33;;;;;;;7.30;3.72;;;11.60;99.90;;;;;;5039443;28;20028;-77
2021/05/12 06:06:59;;;;;;;9.10;4.13;;;;;;;;;;5042173;28;20453;-83
2021/05/12 06:09:24;;;;;;;6.63;3.67;;;11.70;99.90;;;;;;5045268;28;20036;-83
2021/05/12 06:11:51;;;;;;;8.88;4.55;;;11.70;99.90;;;;;;5065344;28;20030;-79
2021/05/12 06:14:18;;;;;;;12.73;5.75;;;11.70;99.90;;;;;;5068728;28;20659;-79
2021/05/12 06:16:44;;;;;;;7.85;4.40;;;11.70;99.90;;;;;;5039669;28;20391;-80
2021/05/12 06:19:10;;;;;;;6.10;3.70;;;;;;;;;;5057373;28;20035;-79
2021/05/12 06:21:36;;;;;;;7.97;3.90;;;;;;;;;;5041564;28;20041;-81
2021/05/12 06:24:02;;;;;;;8.82;3.83;;;12.10;99.90;;;;;;5040040;28;20151;-79
2021/05/12 06:26:28;;;;;;;8.07;4.00;;;12.10;99.90;;;;;;5033759;28;20059;-80
2021/05/12 06:28:54;;;;;;;8.70;3.95;;;12.10;99.90;;;;;;5045848;28;20067;-81
2021/05/12 06:31:20;;;;;;;8.00;3.90;;;;;;;;;;5050586;28;20029;-84
2021/05/12 06:33:47;;;;;;;7.05;3.75;;;12.00;99.90;;;;;;5056934;28;20037;-83
2021/05/12 06:36:16;;;;;;;7.57;4.07;;;12.30;99.90;;;;;;5046716;28;20029;-83
2021/05/12 06:38:43;;;;;;;10.90;3.60;;;15.60;99.90;;;;;;5041477;28;20060;-79
2021/05/12 06:41:09;;;;;;;8.90;3.72;;;11.90;99.90;;;;;;5054962;28;20056;-82
2021/05/12 06:43:34;;;;;;;10.68;3.58;;;11.90;99.90;;;;;;5034802;28;20036;-84
2021/05/12 06:46:00;;;;;;;7.25;3.50;;;11.90;99.90;;;;;;5036490;28;20032;-80
2021/05/12 06:48:26;;;;;;;8.23;3.70;;;14.70;99.90;;;;;;5029644;28;20096;-80
2021/05/12 06:50:53;;;;;;;9.23;4.60;;;13.10;99.90;;;;;;5045576;28;20047;-81
2021/05/12 06:53:30;;;;;;;8.85;5.05;;;12.00;99.90;;;;;;5034622;28;20147;-78
2021/05/12 06:55:57;;;;;;;9.10;4.97;;;12.00;99.90;;;;;;5023617;28;20021;-82
2021/05/12 06:58:23;;;;;;;19.55;9.88;;;12.10;99.90;;;;;;5036267;28;20124;-80
2021/05/12 07:00:50;;;;;;;8.35;4.45;;;12.10;99.90;;;;;;5033819;28;20498;-80
2021/05/12 07:03:16;;;;;;;8.25;3.58;;;12.40;99.90;;;;;;5036941;28;20029;-80
2021/05/12 07:05:43;;;;;;;8.55;5.82;;;;;;;;;;5033306;28;20539;-84
2021/05/12 07:08:08;;;;;;;10.95;6.47;;;12.50;99.90;;;;;;5034985;28;20415;-77
2021/05/12 07:10:34;;;;;;;13.13;7.25;;;13.70;99.90;;;;;;5064429;28;20032;-79
2021/05/12 07:13:00;;;;;;;13.88;7.53;;;12.50;99.90;;;;;;5031234;28;20334;-78
2021/05/12 07:15:25;;;;;;;11.32;6.65;;;12.50;99.90;;;;;;5032931;28;20029;-80
2021/05/12 07:17:51;;;;;;;19.17;12.25;;;12.50;99.90;;;;;;5024816;28;20031;-81
2021/05/12 07:20:17;;;;;;;15.23;10.02;;;;;;;;;;5045811;28;20230;-81
2021/05/12 07:22:43;;;;;;;17.15;9.27;;;12.50;99.90;;;;;;5032702;28;20475;-84
2021/05/12 07:25:09;;;;;;;12.27;9.02;;;12.60;99.90;;;;;;5025696;28;20052;-81
2021/05/12 07:27:36;;;;;;;15.10;8.40;;;12.70;99.90;;;;;;5026450;28;20526;-80
2021/05/12 07:30:02;;;;;;;12.60;9.18;;;12.70;99.90;;;;;;5024803;28;20495;-82
2021/05/12 07:32:28;;;;;;;10.15;7.88;;;12.70;99.90;;;;;;5023956;28;20025;-80
2021/05/12 07:34:53;;;;;;;10.55;6.70;;;12.80;99.90;;;;;;5024951;28;20032;-81
2021/05/12 07:37:20;;;;;;;9.32;4.88;;;;;;;;;;5026186;28;20024;-78
2021/05/12 07:39:46;;;;;;;7.88;4.05;;;12.90;99.90;;;;;;5041799;28;20377;-80
2021/05/12 07:42:13;;;;;;;14.13;8.82;;;13.00;99.90;;;;;;5024440;28;20026;-82
2021/05/12 07:44:39;;;;;;;15.80;8.27;;;13.00;99.90;;;;;;5047278;28;20033;-79
2021/05/12 07:47:04;;;;;;;14.10;8.20;;;13.00;99.90;;;;;;5023720;28;20483;-79
2021/05/12 07:49:30;;;;;;;9.88;7.00;;;12.90;99.90;;;;;;5047134;28;20028;-80
2021/05/12 07:51:57;;;;;;;13.43;7.40;;;12.90;99.90;;;;;;5044890;28;20060;-78
2021/05/12 07:54:22;;;;;;;14.35;7.82;;;12.90;99.90;;;;;;5046248;28;20443;-81
2021/05/12 07:56:48;;;;;;;11.77;7.50;;;13.00;99.90;;;;;;5051147;28;20033;-80
2021/05/12 07:59:16;;;;;;;10.52;4.20;;;13.10;99.90;;;;;;5026978;28;20459;-84
2021/05/12 08:01:45;;;;;;;6.47;4.28;;;13.10;99.90;;;;;;5033919;28;20029;-81
2021/05/12 08:04:11;;;;;;;8.23;3.90;;;13.00;99.90;;;;;;5039183;28;20021;-80
2021/05/12 08:06:37;;;;;;;6.97;3.17;;;13.00;99.90;;;;;;5036267;28;20625;-81
2021/05/12 08:09:03;;;;;;;8.02;3.25;;;13.20;99.90;;;;;;5057951;28;20021;-83
2021/05/12 08:11:29;;;;;;;6.55;3.20;;;13.00;99.90;;;;;;5065544;28;20032;-83
2021/05/12 08:13:55;;;;;;;4.32;2.80;;;;;;;;;;5048836;28;20048;-81
2021/05/12 08:16:21;;;;;;;6.85;3.63;;;13.20;99.90;;;;;;5033623;28;20033;-81
2021/05/12 08:18:46;;;;;;;8.63;3.03;;;13.20;99.90;;;;;;5012670;28;20032;-81
2021/05/12 08:21:12;;;;;;;5.43;3.30;;;16.70;99.90;;;;;;5047098;28;20029;-80
2021/05/12 08:23:38;;;;;;;9.15;3.20;;;;;;;;;;5034966;28;20244;-82
2021/05/12 08:26:04;;;;;;;8.73;3.10;;;;;;;;;;5033302;28;20049;-80
2021/05/12 08:28:30;;;;;;;10.00;3.25;;;13.50;99.90;;;;;;5031289;28;20345;-80
2021/05/12 08:30:57;;;;;;;9.27;3.17;;;13.50;99.90;;;;;;5032064;28;20124;-81
2021/05/12 08:33:24;;;;;;;8.40;3.38;;;13.70;99.90;;;;;;5044846;28;20411;-78
2021/05/12 08:35:50;;;;;;;7.63;3.53;;;13.80;99.90;;;;;;5030865;28;21297;-78
2021/05/12 08:38:18;;;;;;;5.65;3.17;;;13.90;99.90;;;;;;5034921;28;20032;-81
2021/05/12 08:40:48;;;;;;;7.03;3.28;;;14.40;99.90;;;;;;5050145;28;20021;-82
2021/05/12 08:43:14;;;;;;;9.32;4.57;;;14.10;99.90;;;;;;5035801;28;20029;-83
2021/05/12 08:45:44;;;;;;;8.85;4.45;;;16.30;99.90;;;;;;5045859;28;20028;-80
2021/05/12 08:48:15;;;;;;;11.13;4.90;;;14.10;99.90;;;;;;5051439;28;20033;-77
2021/05/12 08:50:42;;;;;;;18.95;7.63;;;14.10;99.90;;;;;;5043798;28;20048;-82
2021/05/12 08:53:08;;;;;;;11.57;7.75;;;14.30;98.30;;;;;;5059817;28;20035;-80
2021/05/12 08:55:34;;;;;;;9.90;5.88;;;14.30;98.30;;;;;;5049367;28;20148;-80
2021/05/12 08:58:00;;;;;;;9.82;4.78;;;;;;;;;;5045158;28;20033;-84
2021/05/12 09:00:26;;;;;;;8.65;5.10;;;14.20;98.50;;;;;;5057138;28;20022;-82
2021/05/12 09:02:52;;;;;;;6.88;3.85;;;;;;;;;;5039919;28;20021;-83
2021/05/12 09:05:19;;;;;;;7.05;2.78;;;14.20;98.80;;;;;;5057847;28;22020;-82
2021/05/12 09:07:46;;;;;;;7.55;2.50;;;14.40;98.90;;;;;;5044423;28;20024;-83
2021/05/12 09:10:12;;;;;;;8.57;2.67;;;14.40;98.40;;;;;;5040494;28;20033;-82
2021/05/12 09:12:52;;;;;;;6.30;2.47;;;14.50;98.60;;;;;;5044002;28;20032;-82
2021/05/12 09:15:21;;;;;;;8.15;2.70;;;14.50;98.70;;;;;;5038645;28;20041;-83
2021/05/12 09:17:51;;;;;;;5.45;2.78;;;16.80;99.50;;;;;;5043992;28;20507;-83
2021/05/12 09:20:20;;;;;;;8.43;3.03;;;14.50;99.30;;;;;;5015858;28;20048;-81
2021/05/12 09:22:46;;;;;;;6.22;3.10;;;14.50;98.60;;;;;;5036946;28;20037;-83
2021/05/12 09:25:19;;;;;;;10.57;2.72;;;14.40;98.80;;;;;;5050941;28;20028;-84
2021/05/12 09:27:51;;;;;;;6.72;3.10;;;;;;;;;;5037028;28;20029;-82
2021/05/12 09:30:21;;;;;;;6.95;3.13;;;14.00;99.50;;;;;;5053779;28;20037;-82
2021/05/12 09:32:47;;;;;;;8.32;3.55;;;14.00;99.50;;;;;;5033227;28;20068;-80
2021/05/12 09:35:14;;;;;;;8.88;3.83;;;15.80;99.90;;;;;;5047332;28;20037;-83
2021/05/12 09:37:47;;;;;;;5.95;3.90;;;13.80;99.90;;;;;;5041645;28;20030;-84
2021/05/12 09:40:17;;;;;;;6.15;4.13;;;14.00;99.90;;;;;;5035218;28;20044;-81
2021/05/12 09:42:45;;;;;;;7.32;3.75;;;14.00;99.90;;;;;;5047546;28;20029;-81
2021/05/12 09:45:15;;;;;;;8.43;3.90;;;14.00;99.90;;;;;;5042905;28;20075;-81
2021/05/12 09:47:42;;;;;;;13.98;4.07;;;14.10;99.90;;;;;;5027801;28;20029;-78
2021/05/12 09:50:24;;;;;;;7.95;3.17;;;14.40;98.70;;;;;;5012985;28;20045;-81
2021/05/12 09:52:57;;;;;;;7.05;3.33;;;14.40;98.80;;;;;;5039188;28;20084;-82
2021/05/12 09:55:36;;;;;;;5.57;2.88;;;14.30;99.00;;;;;;5024545;28;20028;-82
2021/05/12 09:58:08;;;;;;;8.45;3.70;;;14.40;98.90;;;;;;5018125;28;20031;-81
2021/05/12 10:00:39;;;;;;;6.57;2.67;;;14.40;99.10;;;;;;5033874;28;20025;-79
2021/05/12 10:03:06;;;;;;;5.63;2.90;;;14.90;97.70;;;;;;5036355;28;20021;-81
2021/05/12 10:05:51;;;;;;;8.50;2.53;;;14.90;97.90;;;;;;5021186;28;20111;-84
2021/05/12 10:08:33;;;;;;;5.47;2.50;;;15.30;96.50;;;;;;5023251;28;20026;-80
2021/05/12 10:11:03;;;;;;;4.63;2.05;;;15.80;95.50;;;;;;5040469;28;20029;-80
2021/05/12 10:13:33;;;;;;;;;;;16.20;93.30;;;;;;5032177;28;20021;-80
2021/05/12 10:15:59;;;;;;;5.60;2.40;;;16.30;93.40;;;;;;5032948;28;19909;-84
2021/05/12 10:18:25;;;;;;;6.32;2.35;;;16.30;93.30;;;;;;5032128;28;20041;-82
2021/05/12 10:20:58;;;;;;;5.72;2.58;;;16.60;92.00;;;;;;5042898;28;20025;-81
2021/05/12 10:23:25;;;;;;;5.93;2.47;;;18.90;92.80;;;;;;5043972;28;20036;-83
2021/05/12 10:25:51;;;;;;;6.53;2.50;;;16.30;93.10;;;;;;5028738;28;20025;-83
2021/05/12 10:28:17;;;;;;;4.72;2.60;;;;;;;;;;5038486;28;20036;-83
2021/05/12 10:30:47;;;;;;;7.20;2.58;;;16.20;92.60;;;;;;5033118;28;20139;-81
2021/05/12 10:33:13;;;;;;;7.00;3.13;;;;;;;;;;5039562;28;20524;-80
2021/05/12 10:35:40;;;;;;;9.45;3.42;;;16.30;92.90;;;;;;5026301;28;20044;-78
2021/05/12 10:38:32;;;;;;;6.22;2.72;;;16.30;93.10;;;;;;5032448;28;20120;-84
2021/05/12 10:40:58;;;;;;;7.18;2.40;;;;;;;;;;5030933;28;20111;-84
2021/05/12 10:43:37;;;;;;;7.22;2.47;;;16.60;92.00;;;;;;5027934;28;20040;-80
2021/05/12 10:48:46;;;;;;;4.68;2.60;;;17.00;91.10;;;;;;5044205;28;20051;-84
2021/05/12 10:51:22;;;;;;;5.78;2.22;;;17.20;90.50;;;;;;5029575;28;20144;-83
2021/05/12 10:53:52;;;;;;;3.88;2.40;;;17.30;90.20;;;;;;5045676;28;20411;-86
2021/05/12 10:56:20;;;;;;;4.50;2.33;;;17.30;90.40;;;;;;5010000;28;20383;-83
2021/05/12 10:58:47;;;;;;;3.92;2.20;;;;;;;;;;5029237;28;20061;-82
2021/05/12 11:01:13;;;;;;;6.57;1.92;;;17.70;86.10;;;;;;5034847;28;20040;-81
2021/05/12 11:03:54;;;;;;;6.68;1.80;;;17.60;83.60;;;;;;5026567;28;20025;-79
2021/05/12 11:06:24;;;;;;;6.00;2.13;;;18.40;85.40;;;;;;5021513;28;20037;-77
2021/05/12 11:09:09;;;;;;;3.70;1.75;;;17.60;83.90;;;;;;5024538;28;20696;-84
2021/05/12 11:11:44;;;;;;;4.63;2.13;;;17.70;84.30;;;;;;5038677;28;20482;-86
2021/05/12 11:14:31;;;;;;;8.43;1.80;;;17.70;81.60;;;;;;5039465;28;20118;-83
2021/05/12 11:17:12;;;;;;;3.03;1.63;;;17.80;81.40;;;;;;5040055;28;20574;-80
2021/05/12 11:20:00;;;;;;;;;;;17.80;81.80;;;;;;5025564;28;20378;-76
2021/05/12 11:22:42;;;;;;;5.57;1.65;;;18.00;77.20;;;;;;5027046;28;19909;-82
2021/05/12 11:28:18;;;;;;;4.32;1.63;;;17.90;79.40;;;;;;5054412;28;20033;-81
2021/05/12 11:33:33;;;;;;;6.13;1.85;;;17.70;78.60;;;;;;5049697;28;20032;-80
2021/05/12 11:36:06;;;;;;;10.93;2.42;;;17.60;82.20;;;;;;5046100;28;20024;-79
2021/05/12 11:38:32;;;;;;;6.32;1.95;;;17.60;82.70;;;;;;5040121;28;20099;-85
2021/05/12 11:41:21;;;;;;;5.60;1.60;;;18.00;81.30;;;;;;5032954;28;20052;-82
2021/05/12 11:44:00;;;;;;;4.80;1.60;;;;;;;;;;5102817;22;20100;-81
2021/05/12 11:46:28;;;;;;;2.90;1.42;;;;;;;;;;5066048;28;20175;-83
2021/05/12 11:48:57;;;;;;;3.25;1.33;;;;;;;;;;5065923;28;20021;-83
2021/05/12 11:51:41;;;;;;;4.07;1.60;;;18.60;74.00;;;;;;5070259;28;20025;-81
2021/05/12 11:54:24;;;;;;;5.32;1.60;;;18.60;74.50;;;;;;5063622;28;20036;-81
2021/05/12 11:56:55;;;;;;;4.15;1.40;;;18.60;70.10;;;;;;5038072;28;20058;-82
2021/05/12 11:59:31;;;;;;;7.50;1.48;;;18.40;68.70;;;;;;5031951;28;20032;-84
2021/05/12 12:02:11;;;;;;;6.75;1.83;;;18.80;69.10;;;;;;5031653;28;20020;-83
2021/05/12 12:04:38;;;;;;;5.80;1.60;;;18.30;70.80;;;;;;5032075;28;20040;-84
2021/05/12 12:07:05;;;;;;;3.78;1.27;;;18.10;71.30;;;;;;5048169;28;20029;-82
2021/05/12 12:09:32;;;;;;;3.55;1.20;;;;;;;;;;5031883;28;20029;-79
2021/05/12 12:12:01;;;;;;;6.50;1.80;;;18.10;71.30;;;;;;5032849;28;20032;-87
2021/05/12 12:14:34;;;;;;;4.10;1.50;;;17.70;73.50;;;;;;5035212;28;20490;-79
2021/05/12 12:17:00;;;;;;;6.43;1.85;;;;;;;;;;5049839;28;20049;-78
2021/05/12 12:19:26;;;;;;;7.20;1.67;;;17.60;75.70;;;;;;5047241;28;20033;-80
2021/05/12 12:21:56;;;;;;;8.57;2.03;;;17.40;76.40;;;;;;5052789;28;20040;-83
2021/05/12 12:24:25;;;;;;;4.40;1.95;;;17.30;77.40;;;;;;5042957;28;20032;-84
2021/05/12 12:26:53;;;;;;;6.47;2.15;;;17.30;77.30;;;;;;5051718;28;20036;-84
2021/05/12 12:29:23;;;;;;;5.10;2.15;;;17.30;77.70;;;;;;5059511;28;20041;-84
2021/05/12 12:32:00;;;;;;;5.78;1.60;;;17.20;77.60;;;;;;5054719;28;20021;-81
2021/05/12 12:34:31;;;;;;;9.40;2.00;;;17.20;78.00;;;;;;5040603;28;20036;-84
2021/05/12 12:37:10;;;;;;;6.97;1.90;;;17.10;79.10;;;;;;5042955;28;20094;-88
2021/05/12 12:39:48;;;;;;;10.15;2.17;;;16.80;79.60;;;;;;5065839;28;20025;-81
2021/05/12 12:42:18;;;;;;;7.50;1.80;;;16.80;81.20;;;;;;5052227;28;20021;-83
2021/05/12 12:44:45;;;;;;;4.75;1.60;;;14.90;79.30;;;;;;5047674;28;20053;-81
2021/05/12 12:47:14;;;;;;;5.63;1.58;;;17.20;79.90;;;;;;5035902;28;20069;-77
2021/05/12 12:49:58;;;;;;;5.87;1.50;;;17.20;78.90;;;;;;5040110;28;20041;-81
2021/05/12 12:52:30;;;;;;;4.63;1.60;;;17.20;79.40;;;;;;5059337;28;20316;-82
2021/05/12 12:55:10;;;;;;;4.05;1.35;;;17.40;77.90;;;;;;5052145;28;20548;-81
2021/05/12 12:57:42;;;;;;;4.78;1.50;;;17.70;76.50;;;;;;5054563;28;20746;-78
2021/05/12 13:00:18;;;;;;;4.57;1.60;;;17.70;77.00;;;;;;5032715;28;20033;-84
2021/05/12 13:03:15;;;;;;;5.78;1.70;;;17.70;76.50;;;;;;5048425;28;20061;-82
2021/05/12 13:06:00;;;;;;;3.72;1.40;;;17.80;76.50;;;;;;5048167;28;20052;-79
2021/05/12 13:08:28;;;;;;;6.93;1.92;;;17.50;77.90;;;;;;5037870;28;20036;-82
2021/05/12 13:11:04;;;;;;;5.40;1.23;;;17.50;79.10;;;;;;5060840;28;20509;-80
2021/05/12 13:13:48;;;;;;;4.63;1.88;;;17.40;78.50;;;;;;5055060;28;20095;-81
2021/05/12 13:16:34;;;;;;;5.28;1.50;;;17.40;78.70;;;;;;5051169;28;20033;-80
2021/05/12 13:19:01;;;;;;;5.72;1.65;;;17.40;79.10;;;;;;5054060;28;20087;-79
2021/05/12 13:21:29;;;;;;;8.38;1.83;;;17.60;75.60;;;;;;5029827;28;20020;-81